Time;durP1;ratioP1;P1;durP2;ratioP2;P2;SDS_P1;SDS_P2;PMS_P1;PMS_P2;Temp;Humidity;BMP_temperature;BMP_pressure;BME280_temperature;BME280_humidity;BME280_pressure;Samples;Min_cycle;Max_cycle;Signal;HPM_P1;HPM_P2
2023/04/11 00:00:22;;;;;;;4.82;4.43;;;25.70;49.30;;;;;;5052964;28;20232;-65
2023/04/11 00:03:10;;;;;;;4.90;4.40;;;25.60;49.30;;;;;;5053732;28;20225;-65
2023/04/11 00:05:58;;;;;;;4.60;4.20;;;25.60;49.30;;;;;;5053121;28;20228;-65
2023/04/11 00:08:46;;;;;;;4.40;4.00;;;25.60;49.30;;;;;;5052511;28;20700;-65
2023/04/11 00:11:36;;;;;;;4.70;4.30;;;25.60;49.30;;;;;;5052582;28;20235;-65
2023/04/11 00:14:24;;;;;;;4.53;4.13;;;25.60;48.90;;;;;;5052622;28;20605;-65
2023/04/11 00:17:13;;;;;;;4.78;4.38;;;25.60;49.30;;;;;;5053308;28;20205;-64
2023/04/11 00:20:06;;;;;;;4.22;3.83;;;25.60;49.30;;;;;;5052551;28;20343;-64
2023/04/11 00:22:54;;;;;;;4.55;3.88;;;25.60;48.90;;;;;;5052514;28;20217;-64
2023/04/11 00:25:42;;;;;;;3.72;3.42;;;25.60;49.40;;;;;;5052070;28;20276;-64
2023/04/11 00:28:31;;;;;;;4.25;3.95;;;25.60;49.30;;;;;;5052541;28;20291;-65
2023/04/11 00:31:19;;;;;;;4.40;4.03;;;25.60;49.30;;;;;;5052584;28;20569;-65
2023/04/11 00:34:07;;;;;;;4.63;4.18;;;25.50;49.30;;;;;;5051840;28;20244;-64
2023/04/11 00:36:55;;;;;;;4.78;3.92;;;25.50;49.40;;;;;;5052432;28;20198;-65
2023/04/11 00:39:44;;;;;;;4.40;4.07;;;25.40;49.50;;;;;;5051855;28;20204;-64
2023/04/11 00:42:32;;;;;;;4.57;4.18;;;25.40;49.50;;;;;;5052687;28;20236;-65
2023/04/11 00:45:22;;;;;;;4.50;4.13;;;25.30;49.60;;;;;;5052760;28;20201;-65
2023/04/11 00:48:10;;;;;;;3.70;3.40;;;25.20;49.50;;;;;;5051785;28;20221;-65
2023/04/11 00:50:58;;;;;;;4.88;4.13;;;25.30;49.60;;;;;;5052211;28;20216;-64
2023/04/11 00:53:47;;;;;;;4.72;3.88;;;25.30;49.10;;;;;;5051183;28;20304;-64
2023/04/11 00:56:35;;;;;;;4.25;3.90;;;25.40;49.60;;;;;;5051495;28;20228;-64
2023/04/11 00:59:23;;;;;;;4.15;3.75;;;25.40;49.50;;;;;;5052283;28;20591;-65
2023/04/11 01:02:13;;;;;;;4.60;4.20;;;25.20;52.70;;;;;;5052220;28;20205;-65
2023/04/11 01:05:01;;;;;;;4.47;4.07;;;25.60;49.40;;;;;;5052518;28;20243;-64
2023/04/11 01:07:51;;;;;;;4.03;3.72;;;25.60;49.30;;;;;;5051550;28;20228;-64
2023/04/11 01:10:41;;;;;;;4.00;3.70;;;25.70;49.20;;;;;;5052402;28;20201;-65
2023/04/11 01:13:30;;;;;;;4.13;3.72;;;25.70;48.60;;;;;;5051922;28;20221;-64
2023/04/11 01:16:20;;;;;;;4.30;3.90;;;25.70;49.20;;;;;;5052196;28;20206;-65
2023/04/11 01:19:09;;;;;;;4.55;4.15;;;25.70;49.20;;;;;;5052206;28;20201;-65
2023/04/11 01:22:00;;;;;;;5.55;4.55;;;25.70;49.20;;;;;;5051976;28;20193;-65
2023/04/11 01:24:50;;;;;;;4.72;4.32;;;25.60;48.70;;;;;;5051695;28;20255;-64
2023/04/11 01:27:38;;;;;;;4.18;3.80;;;25.60;49.20;;;;;;5052013;28;20227;-64
2023/04/11 01:30:26;;;;;;;4.10;3.70;;;25.60;49.20;;;;;;5052196;28;20205;-65
2023/04/11 01:33:16;;;;;;;3.97;3.67;;;25.60;48.70;;;;;;5051179;28;20591;-64
2023/04/11 01:36:04;;;;;;;4.82;4.43;;;25.60;49.20;;;;;;5051937;28;20193;-65
2023/04/11 01:38:53;;;;;;;4.53;4.13;;;25.60;49.20;;;;;;5051373;28;20197;-65
2023/04/11 01:41:43;;;;;;;4.07;3.72;;;25.70;49.20;;;;;;5051777;28;20205;-64
2023/04/11 01:44:32;;;;;;;4.50;4.20;;;25.70;48.60;;;;;;5093426;22;20311;-64
2023/04/11 01:47:20;;;;;;;4.20;3.80;;;25.70;49.20;;;;;;5049728;28;20217;-64
2023/04/11 01:50:10;;;;;;;4.32;3.92;;;25.70;49.20;;;;;;5061287;28;20201;-64
2023/04/11 01:52:58;;;;;;;4.00;3.70;;;25.70;49.20;;;;;;5070497;28;20306;-63
2023/04/11 01:55:47;;;;;;;3.80;3.50;;;25.60;49.10;;;;;;5071040;28;20780;-64
2023/04/11 01:58:36;;;;;;;4.93;4.43;;;25.70;49.20;;;;;;5052143;28;20208;-63
2023/04/11 02:01:24;;;;;;;4.80;4.40;;;25.60;49.20;;;;;;5050832;28;20623;-64
2023/04/11 02:04:13;;;;;;;4.45;4.05;;;25.60;48.70;;;;;;5050936;28;20340;-63
2023/04/11 02:07:01;;;;;;;4.40;4.00;;;25.60;49.30;;;;;;5050353;28;20213;-63
2023/04/11 02:09:49;;;;;;;4.50;4.10;;;25.50;49.20;;;;;;5050726;28;20259;-64
2023/04/11 02:12:37;;;;;;;4.75;4.30;;;25.60;53.50;;;;;;5051362;28;20288;-63
2023/04/11 02:15:26;;;;;;;4.25;3.85;;;25.40;49.30;;;;;;5050885;28;20310;-63
2023/04/11 02:18:15;;;;;;;4.68;4.28;;;25.40;49.40;;;;;;5051811;28;20601;-64
2023/04/11 02:21:03;;;;;;;3.90;3.60;;;25.50;49.50;;;;;;5054247;28;20311;-64
2023/04/11 02:23:51;;;;;;;3.65;3.35;;;25.40;49.00;;;;;;5054146;28;20709;-63
2023/04/11 02:26:40;;;;;;;4.07;3.70;;;25.40;49.50;;;;;;5055221;28;20320;-61
2023/04/11 02:29:28;;;;;;;4.10;3.70;;;25.40;49.50;;;;;;5054140;28;20324;-61
2023/04/11 02:32:18;;;;;;;4.63;4.15;;;25.40;49.40;;;;;;5053583;28;20236;-63
2023/04/11 02:35:07;;;;;;;4.10;3.80;;;25.40;48.80;;;;;;5053527;28;20339;-64
2023/04/11 02:37:54;;;;;;;4.15;3.83;;;25.50;49.30;;;;;;5053963;28;20276;-64
2023/04/11 02:40:43;;;;;;;4.05;3.75;;;25.50;49.30;;;;;;5054204;28;20683;-64
2023/04/11 02:43:30;;;;;;;4.38;3.97;;;25.50;48.70;;;;;;5053898;28;20339;-63
2023/04/11 02:46:19;;;;;;;4.28;3.97;;;25.50;49.20;;;;;;5054927;28;20281;-63
2023/04/11 02:49:09;;;;;;;4.45;3.95;;;25.60;49.30;;;;;;5053449;28;20225;-63
2023/04/11 02:51:57;;;;;;;4.63;4.18;;;25.50;49.30;;;;;;5054499;28;20205;-61
2023/04/11 02:54:45;;;;;;;4.82;4.32;;;25.50;48.80;;;;;;5053880;28;20225;-64
2023/04/11 02:57:33;;;;;;;4.18;3.83;;;25.50;49.30;;;;;;5053045;28;20201;-63
2023/04/11 03:00:21;;;;;;;4.22;3.83;;;25.50;49.30;;;;;;5054114;28;20280;-64
2023/04/11 03:03:10;;;;;;;4.25;3.92;;;25.50;48.80;;;;;;5053419;28;20308;-64
2023/04/11 03:06:00;;;;;;;3.67;3.38;;;25.60;49.40;;;;;;5053471;28;20566;-63
2023/04/11 03:08:48;;;;;;;4.20;3.90;;;25.60;49.30;;;;;;5053390;28;20219;-64
2023/04/11 03:11:36;;;;;;;4.68;4.20;;;25.60;49.30;;;;;;5053543;28;20210;-61
2023/04/11 03:14:24;;;;;;;3.60;3.30;;;25.60;48.70;;;;;;5053648;28;20227;-61
2023/04/11 03:17:12;;;;;;;4.50;4.10;;;25.70;50.00;;;;;;5053161;28;20330;-63
2023/04/11 03:20:00;;;;;;;4.18;3.83;;;25.60;49.20;;;;;;5054236;28;20201;-61
2023/04/11 03:22:50;;;;;;;4.40;4.00;;;25.60;48.70;;;;;;5052666;28;20787;-62
2023/04/11 03:25:39;;;;;;;4.45;4.05;;;25.60;49.20;;;;;;5053831;28;20282;-61
2023/04/11 03:28:27;;;;;;;4.55;4.15;;;25.60;49.20;;;;;;5053390;28;20217;-61
2023/04/11 03:31:16;;;;;;;4.60;4.18;;;25.60;49.10;;;;;;5051983;28;20201;-61
2023/04/11 03:34:06;;;;;;;3.83;3.53;;;25.60;48.70;;;;;;5053470;28;20230;-61
2023/04/11 03:36:54;;;;;;;3.92;3.63;;;25.60;49.20;;;;;;5052696;28;20236;-61
2023/04/11 03:39:43;;;;;;;4.18;3.88;;;25.60;49.20;;;;;;5053210;28;20331;-62
2023/04/11 03:42:31;;;;;;;3.95;3.65;;;25.90;49.60;;;;;;5052363;28;20224;-61
2023/04/11 03:45:19;;;;;;;4.18;3.85;;;25.60;49.20;;;;;;5053178;28;20209;-61
2023/04/11 03:48:07;;;;;;;4.07;3.67;;;25.70;49.20;;;;;;5053618;28;20308;-61
2023/04/11 03:50:56;;;;;;;4.40;4.10;;;25.70;49.20;;;;;;5052829;28;20205;-61
2023/04/11 03:53:44;;;;;;;4.50;3.83;;;25.70;48.70;;;;;;5053052;28;20218;-62
2023/04/11 03:56:33;;;;;;;4.55;4.15;;;25.70;49.20;;;;;;5052390;28;20270;-61
2023/04/11 03:59:21;;;;;;;4.45;4.05;;;25.70;49.30;;;;;;5053058;28;20242;-61
2023/04/11 04:02:09;;;;;;;4.40;4.00;;;25.60;49.30;;;;;;5052194;28;20676;-61
2023/04/11 04:04:58;;;;;;;3.90;3.60;;;25.60;49.00;;;;;;5053500;28;20206;-61
2023/04/11 04:07:46;;;;;;;3.55;3.25;;;25.50;49.50;;;;;;5052192;28;20901;-61
2023/04/11 04:10:34;;;;;;;3.80;3.50;;;25.50;49.70;;;;;;5052073;28;20295;-62
2023/04/11 04:13:23;;;;;;;4.50;3.90;;;25.30;49.40;;;;;;5051752;28;20331;-61
2023/04/11 04:16:11;;;;;;;4.22;3.83;;;25.20;49.90;;;;;;5052209;28;20581;-61
2023/04/11 04:19:01;;;;;;;4.10;3.78;;;25.30;50.20;;;;;;5053152;28;20194;-61
2023/04/11 04:21:49;;;;;;;4.20;3.80;;;25.10;50.50;;;;;;5052121;28;20198;-61
2023/04/11 04:24:38;;;;;;;5.63;4.40;;;25.10;49.70;;;;;;5051817;28;20257;-61
2023/04/11 04:27:26;;;;;;;4.43;4.00;;;25.30;50.40;;;;;;5052527;28;20255;-61
2023/04/11 04:30:17;;;;;;;4.10;3.70;;;25.20;50.30;;;;;;5052718;28;20324;-61
2023/04/11 04:33:11;;;;;;;4.93;4.15;;;25.30;49.70;;;;;;5051906;28;20767;-61
2023/04/11 04:36:00;;;;;;;3.83;3.53;;;25.40;50.30;;;;;;5051919;28;20204;-63
2023/04/11 04:38:49;;;;;;;4.30;3.97;;;25.50;50.20;;;;;;5051119;28;20196;-63
2023/04/11 04:41:38;;;;;;;4.43;4.03;;;25.50;50.10;;;;;;5051135;28;20682;-63
2023/04/11 04:44:26;;;;;;;4.00;3.70;;;25.50;49.50;;;;;;5050769;28;20314;-61
2023/04/11 04:47:15;;;;;;;3.92;3.63;;;25.60;50.10;;;;;;5051588;28;20236;-61
2023/04/11 04:50:04;;;;;;;3.83;3.53;;;25.60;50.20;;;;;;5051720;28;20221;-63
2023/04/11 04:52:52;;;;;;;3.40;3.05;;;25.60;49.60;;;;;;5052278;28;20221;-63
2023/04/11 04:55:40;;;;;;;3.88;3.47;;;25.60;50.10;;;;;;5051997;28;20244;-64
2023/04/11 04:58:28;;;;;;;3.58;3.33;;;25.60;50.10;;;;;;5051871;28;20257;-63
2023/04/11 05:01:16;;;;;;;3.65;3.35;;;25.60;50.10;;;;;;5051284;28;20242;-63
2023/04/11 05:04:06;;;;;;;3.88;3.58;;;25.60;49.70;;;;;;5051891;28;20296;-63
2023/04/11 05:06:54;;;;;;;4.75;4.35;;;25.60;50.30;;;;;;5051864;28;20202;-64
2023/04/11 05:09:42;;;;;;;4.10;3.65;;;25.60;50.30;;;;;;5052004;28;20757;-64
2023/04/11 05:12:30;;;;;;;4.32;3.92;;;25.70;50.10;;;;;;5050457;28;20201;-63
2023/04/11 05:15:21;;;;;;;3.58;3.28;;;25.60;50.30;;;;;;5051693;28;20253;-64
2023/04/11 05:18:09;;;;;;;3.88;3.58;;;25.60;50.30;;;;;;5051695;28;20206;-63
2023/04/11 05:20:59;;;;;;;4.00;3.70;;;25.60;50.40;;;;;;5051180;28;20202;-63
2023/04/11 05:23:47;;;;;;;3.60;3.30;;;25.60;50.00;;;;;;5051176;28;20225;-64
2023/04/11 05:26:35;;;;;;;3.95;3.58;;;25.60;50.50;;;;;;5051480;28;20281;-64
2023/04/11 05:29:23;;;;;;;4.15;3.80;;;25.50;50.60;;;;;;5051940;28;20344;-64
2023/04/11 05:32:11;;;;;;;3.97;3.67;;;25.50;50.60;;;;;;5050596;28;20749;-64
2023/04/11 05:34:59;;;;;;;4.22;3.70;;;25.40;50.20;;;;;;5051923;28;20208;-63
2023/04/11 05:37:48;;;;;;;4.32;3.80;;;25.30;50.70;;;;;;5050062;28;20229;-64
2023/04/11 05:40:36;;;;;;;4.10;3.70;;;25.40;50.90;;;;;;5051383;28;20229;-63
2023/04/11 05:43:24;;;;;;;4.18;3.78;;;25.30;50.50;;;;;;5050792;28;20303;-64
2023/04/11 05:46:12;;;;;;;5.15;3.80;;;25.30;51.10;;;;;;5051506;28;20338;-64
2023/04/11 05:49:01;;;;;;;3.53;3.22;;;25.30;51.10;;;;;;5051139;28;20221;-63
2023/04/11 05:51:49;;;;;;;3.40;3.10;;;25.30;51.20;;;;;;5050392;28;20284;-63
2023/04/11 05:54:38;;;;;;;2.97;2.78;;;25.30;50.60;;;;;;5049339;28;20218;-63
2023/04/11 05:57:26;;;;;;;3.95;3.58;;;25.30;51.10;;;;;;5051287;28;20284;-63
2023/04/11 06:00:16;;;;;;;4.00;3.70;;;25.40;51.10;;;;;;5051195;28;20219;-63
2023/04/11 06:03:05;;;;;;;3.65;3.40;;;25.30;50.70;;;;;;5049925;28;20229;-64
2023/04/11 06:05:53;;;;;;;3.72;3.42;;;25.30;51.20;;;;;;5051647;28;20228;-63
2023/04/11 06:08:41;;;;;;;3.33;3.03;;;25.30;51.40;;;;;;5051642;28;20675;-63
2023/04/11 06:11:31;;;;;;;4.00;3.70;;;25.10;51.30;;;;;;5051575;28;20220;-64
2023/04/11 06:14:19;;;;;;;3.70;3.40;;;25.10;50.90;;;;;;5050983;28;20214;-63
2023/04/11 06:17:08;;;;;;;4.10;3.70;;;25.20;51.50;;;;;;5050970;28;20751;-64
2023/04/11 06:19:56;;;;;;;3.47;3.17;;;25.20;51.40;;;;;;5050370;28;20285;-64
2023/04/11 06:22:45;;;;;;;3.30;3.00;;;25.40;50.80;;;;;;5050621;28;20305;-64
2023/04/11 06:25:33;;;;;;;4.15;3.75;;;25.40;51.30;;;;;;5050966;28;20586;-64
2023/04/11 06:28:23;;;;;;;3.90;3.60;;;25.40;51.20;;;;;;5051004;28;20276;-64
2023/04/11 06:31:11;;;;;;;3.35;3.15;;;25.50;51.10;;;;;;5051990;28;20783;-64
2023/04/11 06:33:59;;;;;;;4.43;3.47;;;25.70;50.60;;;;;;5050940;28;20708;-62
2023/04/11 06:36:48;;;;;;;3.50;3.20;;;25.70;51.00;;;;;;5051855;28;20335;-62
2023/04/11 06:39:36;;;;;;;3.78;3.47;;;25.70;50.90;;;;;;5050572;28;20255;-62
2023/04/11 06:42:24;;;;;;;3.65;3.35;;;26.00;50.80;;;;;;5050781;28;20668;-62
2023/04/11 06:45:14;;;;;;;4.57;3.65;;;25.80;50.90;;;;;;5050762;28;20224;-62
2023/04/11 06:48:02;;;;;;;3.42;3.22;;;25.70;50.90;;;;;;5050232;28;20244;-62
2023/04/11 06:50:50;;;;;;;4.20;3.20;;;25.80;51.00;;;;;;5051350;28;20225;-62
2023/04/11 06:53:38;;;;;;;3.78;3.33;;;25.70;50.60;;;;;;5050238;28;20228;-62
2023/04/11 06:56:26;;;;;;;3.53;3.17;;;25.70;51.10;;;;;;5051125;28;20271;-62
2023/04/11 06:59:15;;;;;;;3.78;3.47;;;25.60;51.20;;;;;;5049856;28;20231;-62
2023/04/11 07:02:05;;;;;;;3.40;3.10;;;25.50;51.30;;;;;;5048056;28;20205;-63
2023/04/11 07:04:53;;;;;;;3.70;3.40;;;25.60;50.70;;;;;;5047471;28;20581;-62
2023/04/11 07:07:41;;;;;;;3.55;3.17;;;25.50;51.30;;;;;;5042613;28;20213;-63
2023/04/11 07:10:29;;;;;;;3.40;3.10;;;25.60;51.60;;;;;;5054148;28;20769;-62
2023/04/11 07:13:19;;;;;;;4.15;3.65;;;25.50;51.40;;;;;;5034872;28;20304;-63
2023/04/11 07:16:08;;;;;;;3.47;3.17;;;25.50;52.00;;;;;;5034083;28;20821;-63
2023/04/11 07:18:58;;;;;;;3.33;3.10;;;25.50;52.10;;;;;;5034468;28;20273;-63
2023/04/11 07:21:47;;;;;;;3.65;3.35;;;25.50;52.10;;;;;;5033720;28;20230;-63
2023/04/11 07:24:35;;;;;;;3.85;3.33;;;25.50;51.60;;;;;;5034251;28;20253;-63
2023/04/11 07:27:25;;;;;;;3.15;2.85;;;25.50;52.10;;;;;;5033083;28;20288;-63
2023/04/11 07:30:14;;;;;;;3.42;3.13;;;25.50;52.20;;;;;;5050803;28;20222;-63
2023/04/11 07:33:02;;;;;;;3.47;3.08;;;25.50;51.80;;;;;;5033755;28;20214;-62
2023/04/11 07:35:52;;;;;;;3.03;2.80;;;25.50;52.30;;;;;;5033752;28;20718;-63
2023/04/11 07:38:40;;;;;;;3.80;3.42;;;25.60;52.30;;;;;;5034054;28;20197;-63
2023/04/11 07:41:28;;;;;;;3.65;3.35;;;25.50;52.20;;;;;;5034922;28;20729;-63
2023/04/11 07:44:16;;;;;;;3.25;2.95;;;25.60;51.70;;;;;;5045659;28;20264;-63
2023/04/11 07:47:04;;;;;;;3.20;3.00;;;25.50;52.10;;;;;;5047135;28;20633;-63
2023/04/11 07:49:52;;;;;;;3.47;3.17;;;25.60;52.10;;;;;;5053586;28;20220;-63
2023/04/11 07:52:42;;;;;;;3.20;2.90;;;25.50;56.30;;;;;;5054024;28;20281;-63
2023/04/11 07:55:30;;;;;;;3.40;3.10;;;25.70;52.10;;;;;;5054379;28;20678;-63
2023/04/11 07:58:18;;;;;;;3.10;2.90;;;25.70;52.00;;;;;;5053864;28;20225;-63
2023/04/11 08:01:08;;;;;;;4.75;3.05;;;25.80;52.10;;;;;;5044707;28;20208;-63
2023/04/11 08:03:56;;;;;;;3.10;2.90;;;25.70;51.50;;;;;;5046931;28;20307;-63
2023/04/11 08:06:45;;;;;;;3.33;2.75;;;25.80;52.20;;;;;;5053043;28;20686;-62
2023/04/11 08:09:35;;;;;;;2.97;2.78;;;25.70;52.10;;;;;;5052929;28;20209;-63
2023/04/11 08:12:23;;;;;;;3.13;2.83;;;25.20;53.20;;;;;;5051920;28;20197;-62
2023/04/11 08:15:11;;;;;;;2.75;2.55;;;25.50;52.30;;;;;;5052114;28;20219;-62
2023/04/11 08:17:59;;;;;;;2.90;2.70;;;25.60;52.40;;;;;;5052510;28;20308;-62
2023/04/11 08:20:47;;;;;;;3.65;2.15;;;25.40;52.40;;;;;;5044071;28;20233;-62
2023/04/11 08:23:36;;;;;;;2.65;2.45;;;25.30;52.00;;;;;;5052268;28;20253;-63
2023/04/11 08:26:25;;;;;;;2.80;2.60;;;25.40;52.60;;;;;;5052607;28;20281;-62
2023/04/11 08:29:14;;;;;;;2.53;2.33;;;25.30;52.60;;;;;;5053120;28;20276;-62
2023/04/11 08:32:02;;;;;;;3.53;2.65;;;25.40;52.60;;;;;;5051431;28;20308;-63
2023/04/11 08:34:50;;;;;;;1.95;1.83;;;25.40;51.90;;;;;;5052465;28;20323;-62
2023/04/11 08:37:39;;;;;;;3.13;2.83;;;25.40;52.40;;;;;;5051677;28;20201;-62
2023/04/11 08:40:28;;;;;;;3.08;2.80;;;25.50;52.30;;;;;;5052038;28;20570;-63
2023/04/11 08:43:17;;;;;;;5.25;2.88;;;25.60;51.80;;;;;;5050884;28;20367;-62
2023/04/11 08:46:06;;;;;;;3.22;2.20;;;25.60;52.30;;;;;;5052219;28;20335;-63
2023/04/11 08:48:54;;;;;;;2.50;2.30;;;25.60;52.20;;;;;;5052227;28;20200;-62
2023/04/11 08:51:44;;;;;;;2.55;2.35;;;25.70;52.20;;;;;;5052291;28;20296;-62
2023/04/11 08:54:32;;;;;;;2.80;2.60;;;25.70;51.60;;;;;;5051452;28;20233;-62
2023/04/11 08:57:30;;;;;;;3.20;2.88;;;25.80;52.10;;;;;;5052536;28;20792;-62
2023/04/11 09:00:24;;;;;;;3.60;2.88;;;25.80;52.10;;;;;;5043772;28;20687;-62
2023/04/11 09:03:15;;;;;;;2.90;2.40;;;25.80;51.40;;;;;;5051171;28;20675;-62
2023/04/11 09:06:09;;;;;;;2.95;2.67;;;25.80;52.00;;;;;;5052248;28;20212;-62
2023/04/11 09:08:58;;;;;;;2.60;2.40;;;25.80;51.90;;;;;;5051125;28;20201;-62
2023/04/11 09:11:53;;;;;;;2.03;1.92;;;25.90;51.90;;;;;;5050787;28;20213;-62
2023/04/11 09:14:41;;;;;;;3.83;2.85;;;25.80;51.30;;;;;;5052136;28;20221;-63
2023/04/11 09:17:40;;;;;;;2.58;2.38;;;25.90;51.90;;;;;;5051739;28;20233;-63
2023/04/11 09:20:30;;;;;;;2.25;2.15;;;26.00;51.90;;;;;;5051551;28;20199;-62
2023/04/11 09:23:22;;;;;;;2.53;2.33;;;25.90;51.30;;;;;;5051117;28;20272;-62
2023/04/11 09:26:26;;;;;;;3.72;2.00;;;25.90;51.90;;;;;;5050744;28;20205;-62
2023/04/11 09:29:35;;;;;;;2.53;2.33;;;25.80;51.80;;;;;;5050529;28;20209;-63
2023/04/11 09:32:27;;;;;;;6.35;2.33;;;25.80;51.30;;;;;;5051159;28;20673;-62
2023/04/11 09:35:23;;;;;;;2.65;2.33;;;25.80;51.90;;;;;;5051949;28;20552;-63
2023/04/11 09:38:11;;;;;;;2.47;1.70;;;25.80;51.90;;;;;;5050712;28;20206;-62
2023/04/11 09:41:01;;;;;;;3.13;2.10;;;25.80;52.00;;;;;;5051819;28;20208;-62
2023/04/11 09:43:50;;;;;;;2.65;2.45;;;25.70;51.50;;;;;;5050132;28;20229;-63
2023/04/11 09:46:55;;;;;;;2.05;1.95;;;25.70;52.10;;;;;;5051174;28;20197;-62
2023/04/11 09:49:44;;;;;;;2.97;1.85;;;25.60;52.10;;;;;;5050923;28;20682;-63
2023/04/11 09:52:35;;;;;;;11.88;3.00;;;25.40;55.30;;;;;;5050760;28;20282;-63
2023/04/11 09:55:25;;;;;;;2.38;2.17;;;25.70;52.20;;;;;;5050455;28;20279;-62
2023/04/11 09:58:13;;;;;;;3.03;2.67;;;25.60;52.20;;;;;;5050929;28;20278;-64
2023/04/11 10:01:01;;;;;;;1.75;1.65;;;25.70;52.90;;;;;;5051187;28;20224;-62
2023/04/11 10:03:50;;;;;;;2.05;1.85;;;25.70;51.70;;;;;;5037620;28;20225;-62
2023/04/11 10:06:44;;;;;;;2.67;2.47;;;25.70;52.20;;;;;;5050129;28;20209;-62
2023/04/11 10:09:38;;;;;;;2.22;2.03;;;25.80;52.20;;;;;;5050230;28;20665;-62
2023/04/11 10:12:32;;;;;;;5.03;2.47;;;25.70;51.90;;;;;;5045176;28;20296;-62
2023/04/11 10:15:21;;;;;;;4.63;2.30;;;25.70;52.20;;;;;;5032178;28;20284;-64
2023/04/11 10:18:10;;;;;;;1.85;1.70;;;25.70;52.10;;;;;;5049963;28;20280;-62
2023/04/11 10:21:00;;;;;;;4.25;2.28;;;25.70;52.30;;;;;;5044443;28;20244;-62
2023/04/11 10:24:07;;;;;;;1.65;1.55;;;25.60;51.90;;;;;;5030037;28;20308;-63
2023/04/11 10:26:59;;;;;;;2.10;1.63;;;25.60;52.40;;;;;;5030162;28;20235;-62
2023/04/11 10:29:49;;;;;;;8.30;2.40;;;25.50;52.40;;;;;;5031420;28;20283;-63
2023/04/11 10:32:40;;;;;;;11.98;2.65;;;25.70;56.90;;;;;;5029980;28;20304;-62
2023/04/11 10:35:29;;;;;;;7.18;1.88;;;25.60;52.40;;;;;;5032422;28;20202;-62
2023/04/11 10:38:45;;;;;;;3.58;2.40;;;25.60;52.30;;;;;;5031629;28;20667;-63
2023/04/11 10:41:34;;;;;;;2.72;1.55;;;25.70;52.40;;;;;;5034588;28;20239;-62
2023/04/11 10:44:23;;;;;;;4.60;1.83;;;25.80;51.80;;;;;;5034151;28;20229;-62
2023/04/11 10:47:17;;;;;;;2.95;1.80;;;25.80;52.20;;;;;;5035009;28;20704;-62
2023/04/11 10:50:39;;;;;;;3.72;2.08;;;25.90;52.10;;;;;;5036159;28;20205;-62
2023/04/11 10:53:36;;;;;;;3.13;1.73;;;26.10;51.50;;;;;;5034501;28;20690;-63
2023/04/11 10:56:57;;;;;;;2.15;1.95;;;26.10;52.00;;;;;;5034866;28;20202;-62
2023/04/11 11:00:10;;;;;;;1.67;1.58;;;26.10;52.00;;;;;;4948085;29;20201;-62
2023/04/11 11:03:00;;;;;;;2.08;1.40;;;26.00;51.40;;;;;;4954437;28;20232;-63
2023/04/11 11:05:59;;;;;;;2.75;1.52;;;26.00;52.00;;;;;;5055799;28;20693;-63
2023/04/11 11:08:47;;;;;;;3.08;1.80;;;26.00;52.10;;;;;;5034659;28;20277;-62
2023/04/11 11:11:35;;;;;;;2.65;1.88;;;26.00;52.10;;;;;;5032714;28;20218;-62
2023/04/11 11:14:29;;;;;;;2.72;1.48;;;25.90;51.50;;;;;;5033616;28;20284;-62
2023/04/11 11:17:18;;;;;;;4.03;1.98;;;26.00;52.10;;;;;;5032881;28;20202;-62
2023/04/11 11:20:15;;;;;;;1.95;1.70;;;26.00;52.00;;;;;;5034425;28;20567;-62
2023/04/11 11:23:04;;;;;;;4.82;1.70;;;26.00;51.40;;;;;;5032644;28;20722;-63
2023/04/11 11:25:53;;;;;;;4.53;1.75;;;26.10;52.00;;;;;;5032274;28;20648;-63
2023/04/11 11:28:46;;;;;;;1.20;1.10;;;26.10;52.00;;;;;;5034141;28;20235;-63
2023/04/11 11:31:36;;;;;;;1.90;1.38;;;26.20;52.00;;;;;;5033539;28;20372;-63
2023/04/11 11:34:28;;;;;;;1.75;1.45;;;26.10;51.50;;;;;;5032995;28;20222;-62
2023/04/11 11:37:17;;;;;;;1.60;1.50;;;26.10;52.00;;;;;;5034392;28;20208;-63
2023/04/11 11:40:11;;;;;;;1.35;1.25;;;26.10;52.00;;;;;;5048606;28;20220;-63
2023/04/11 11:42:59;;;;;;;1.23;1.13;;;26.00;51.50;;;;;;5047038;28;20221;-63
2023/04/11 11:46:01;;;;;;;2.50;1.48;;;25.90;52.00;;;;;;5062124;28;20193;-63
2023/04/11 11:48:58;;;;;;;3.85;1.20;;;25.90;52.10;;;;;;5052681;28;20201;-62
2023/04/11 11:51:48;;;;;;;2.83;1.48;;;25.90;52.10;;;;;;5052086;28;20219;-63
2023/04/11 11:54:43;;;;;;;4.53;1.48;;;25.90;51.60;;;;;;5041457;28;20730;-63
2023/04/11 11:57:31;;;;;;;2.47;1.40;;;25.90;52.10;;;;;;5040674;28;20296;-63
2023/04/11 12:00:24;;;;;;;1.60;1.50;;;25.90;52.10;;;;;;5052183;28;20276;-63
2023/04/11 12:03:17;;;;;;;1.33;1.10;;;26.00;51.50;;;;;;5040618;28;20222;-62
2023/04/11 12:06:08;;;;;;;3.35;1.58;;;26.00;52.10;;;;;;5035180;28;20197;-62
2023/04/11 12:09:02;;;;;;;2.38;1.33;;;26.00;52.10;;;;;;5049733;28;20227;-64
2023/04/11 12:11:55;;;;;;;1.35;1.25;;;26.00;52.00;;;;;;5051958;28;20214;-63
2023/04/11 12:14:52;;;;;;;2.50;1.48;;;26.00;51.40;;;;;;5051503;28;20304;-62
2023/04/11 12:17:40;;;;;;;6.90;1.35;;;26.00;52.00;;;;;;5050548;28;20255;-63
2023/04/11 12:20:29;;;;;;;2.60;1.80;;;26.00;51.90;;;;;;5052626;28;20205;-63
2023/04/11 12:23:17;;;;;;;2.35;1.50;;;26.00;51.50;;;;;;5050927;28;20351;-63
2023/04/11 12:26:07;;;;;;;1.67;1.15;;;25.90;51.90;;;;;;5052254;28;20201;-62
2023/04/11 12:28:55;;;;;;;2.75;1.77;;;25.90;52.00;;;;;;5052413;28;20280;-63
2023/04/11 12:31:43;;;;;;;4.05;1.58;;;25.90;52.00;;;;;;5051013;28;20273;-62
2023/04/11 12:34:33;;;;;;;2.97;1.40;;;25.90;51.50;;;;;;5051706;28;20221;-63
2023/04/11 12:37:21;;;;;;;2.55;1.20;;;25.90;52.10;;;;;;5052984;28;20224;-63
2023/04/11 12:40:10;;;;;;;1.23;1.13;;;25.80;51.80;;;;;;5051292;28;20296;-63
2023/04/11 12:43:00;;;;;;;1.33;1.17;;;25.70;51.70;;;;;;5051518;28;20259;-63
2023/04/11 12:45:48;;;;;;;42.28;4.70;;;25.70;52.20;;;;;;5052805;28;20205;-63
2023/04/11 12:48:36;;;;;;;20.60;2.17;;;25.60;52.00;;;;;;5052481;28;20694;-63
2023/04/11 12:51:24;;;;;;;4.50;1.48;;;25.70;52.10;;;;;;5051887;28;20201;-62
2023/04/11 12:54:12;;;;;;;13.15;2.33;;;25.70;51.70;;;;;;5051740;28;20221;-63
2023/04/11 12:57:01;;;;;;;12.27;2.33;;;25.70;52.30;;;;;;5051308;28;20233;-62
2023/04/11 12:59:51;;;;;;;7.18;1.45;;;25.70;52.40;;;;;;5051564;28;20205;-63
2023/04/11 13:02:39;;;;;;;6.28;1.70;;;25.30;56.10;;;;;;5050749;28;20200;-62
2023/04/11 13:05:32;;;;;;;7.60;1.50;;;25.60;52.30;;;;;;5051188;28;20228;-62
2023/04/11 13:08:20;;;;;;;3.20;1.60;;;25.70;52.40;;;;;;5051367;28;20280;-63
2023/04/11 13:11:08;;;;;;;5.40;2.10;;;25.60;52.40;;;;;;5051251;28;20645;-62
2023/04/11 13:13:56;;;;;;;6.55;1.40;;;25.50;51.90;;;;;;5051552;28;20363;-62
2023/04/11 13:16:46;;;;;;;5.28;2.63;;;25.50;52.40;;;;;;5051533;28;20323;-63
2023/04/11 13:19:35;;;;;;;7.72;1.52;;;25.50;52.50;;;;;;5051526;28;20692;-61
2023/04/11 13:22:23;;;;;;;4.25;1.55;;;25.40;52.50;;;;;;5050404;28;20201;-62
2023/04/11 13:25:11;;;;;;;3.67;1.40;;;25.50;52.10;;;;;;5051434;28;20280;-62
2023/04/11 13:27:59;;;;;;;7.00;1.40;;;25.40;52.60;;;;;;5050855;28;20204;-62
2023/04/11 13:30:47;;;;;;;4.80;1.90;;;25.40;52.60;;;;;;5051330;28;20232;-62
2023/04/11 13:33:39;;;;;;;5.38;1.05;;;25.40;52.10;;;;;;5050753;28;20250;-63
2023/04/11 13:36:27;;;;;;;2.00;1.20;;;25.40;52.60;;;;;;5050575;28;20208;-63
2023/04/11 13:39:15;;;;;;;5.07;1.42;;;25.40;52.60;;;;;;5050512;28;20237;-63
2023/04/11 13:42:03;;;;;;;2.55;1.35;;;25.40;52.50;;;;;;5050518;28;20204;-63
2023/04/11 13:44:51;;;;;;;3.97;1.27;;;25.50;52.10;;;;;;5051232;28;20201;-63
2023/04/11 13:47:40;;;;;;;4.53;1.40;;;25.50;52.60;;;;;;5050711;28;20602;-62
2023/04/11 13:50:29;;;;;;;4.30;1.23;;;25.50;52.50;;;;;;5050978;28;20441;-63
2023/04/11 13:53:17;;;;;;;6.05;1.17;;;25.40;52.00;;;;;;5050555;28;20266;-62
2023/04/11 13:56:07;;;;;;;2.05;1.00;;;25.40;52.50;;;;;;5050353;28;20298;-62
2023/04/11 13:58:55;;;;;;;7.35;1.45;;;25.40;52.50;;;;;;5031620;28;20348;-63
2023/04/11 14:01:44;;;;;;;4.50;1.15;;;25.40;52.60;;;;;;5031584;28;20198;-63
2023/04/11 14:04:32;;;;;;;2.75;1.05;;;25.30;52.10;;;;;;5030011;28;20224;-63
2023/04/11 14:07:21;;;;;;;1.00;0.95;;;25.30;52.60;;;;;;5030786;28;20281;-62
2023/04/11 14:10:10;;;;;;;3.97;1.17;;;25.30;52.70;;;;;;5030798;28;20230;-62
2023/04/11 14:12:58;;;;;;;1.50;1.08;;;25.30;52.10;;;;;;5030960;28;20719;-62
2023/04/11 14:15:46;;;;;;;3.88;1.17;;;25.30;52.60;;;;;;5041327;28;20248;-62
2023/04/11 14:18:48;;;;;;;1.50;1.10;;;25.30;52.50;;;;;;5042356;28;20646;-63
2023/04/11 14:21:36;;;;;;;1.13;0.90;;;25.40;52.50;;;;;;5038176;28;20277;-63
2023/04/11 14:24:25;;;;;;;1.45;0.82;;;25.50;51.90;;;;;;5038920;28;20303;-63
2023/04/11 14:27:13;;;;;;;1.73;1.10;;;25.50;52.40;;;;;;5041413;28;20279;-63
2023/04/11 14:30:01;;;;;;;1.52;0.90;;;25.50;52.30;;;;;;5040747;28;20853;-63
2023/04/11 14:32:49;;;;;;;2.33;1.02;;;25.60;51.80;;;;;;5040755;28;20232;-63
2023/04/11 14:35:37;;;;;;;1.98;1.00;;;25.50;52.20;;;;;;5041031;28;20600;-63
2023/04/11 14:38:25;;;;;;;3.95;1.02;;;25.60;52.20;;;;;;5040387;28;20252;-63
2023/04/11 14:41:15;;;;;;;1.23;0.70;;;25.50;52.20;;;;;;5041277;28;20729;-63